This is the latest recevied weather packets stored in our database for station/object OE5RPP. If no packets are shown the sender has not sent any weather packets the latest 1 day(s).
| Time | Temp. | Humidity | Pressure | Rain* | Wind** | Luminosity | Snow |
|---|---|---|---|---|---|---|---|
| 1777989666 | 26.67° C | 17% | 1007.9 hPa | 0 mm | 1.34 m/s, 90° | - | - |
| 1777989066 | 26.67° C | 15% | 1007.9 hPa | 0 mm | 1.79 m/s, 67° | - | - |
| 1777988466 | 27.22° C | 15% | 1007.9 hPa | 0 mm | 1.34 m/s, 45° | - | - |
| 1777987865 | 27.22° C | 15% | 1007.9 hPa | 0 mm | 1.34 m/s, 90° | - | - |
| 1777987265 | 27.78° C | 15% | 1007.9 hPa | 0 mm | 1.79 m/s, 67° | - | - |
| 1777986666 | 27.78° C | 15% | 1007.9 hPa | 0 mm | 1.34 m/s, 45° | - | - |
| 1777986066 | 28.33° C | 15% | 1008.9 hPa | 0 mm | 2.24 m/s, 0° | - | - |
| 1777985466 | 28.33° C | 15% | 1008.9 hPa | 0 mm | 1.79 m/s, 90° | - | - |
| 1777984865 | 27.78° C | 15% | 1008.9 hPa | 0 mm | 1.34 m/s, 45° | - | - |
| 1777984266 | 27.22° C | 15% | 1008.9 hPa | 0 mm | 2.24 m/s, 45° | - | - |
| 1777983666 | 26.67° C | 17% | 1008.9 hPa | 0 mm | 1.34 m/s, 90° | - | - |
| 1777983065 | 26.11° C | 17% | 1008.9 hPa | 0 mm | 2.24 m/s, 22° | - | - |
| 1777982467 | 26.11° C | 17% | 1008.9 hPa | 0 mm | 1.34 m/s, 22° | - | - |
| 1777981865 | 25° C | 17% | 1008.9 hPa | 0 mm | 1.34 m/s, 315° | - | - |
| 1777981264 | 25.56° C | 17% | 1008.9 hPa | 0 mm | 2.24 m/s, 247° | - | - |
| 1777980665 | 26.11° C | 17% | 1009.9 hPa | 0 mm | 1.34 m/s, 22° | - | - |
| 1777980065 | 25.56° C | 17% | 1009.9 hPa | 0 mm | 2.24 m/s, 337° | - | - |
| 1777979464 | 25.56° C | 17% | 1009.9 hPa | 0 mm | 1.34 m/s, 157° | - | - |
| 1777978866 | 24.44° C | 18% | 1009.9 hPa | 0 mm | 1.79 m/s, 247° | - | - |
| 1777978265 | 23.89° C | 18% | 1009.9 hPa | 0 mm | 2.24 m/s, 337° | - | - |
| 1777977665 | 23.89° C | 18% | 1009.9 hPa | 0 mm | 1.79 m/s, 337° | - | - |
| 1777977064 | 23.33° C | 18% | 1009.9 hPa | 0 mm | 1.79 m/s, 315° | - | - |
| 1777976559 | 23.89° C | 18% | 1009.9 hPa | 0 mm | 1.79 m/s, 0° | - | - |
| 1777975824 | 24.44° C | 18% | 1010.9 hPa | 0 mm | 1.34 m/s, 0° | - | - |
| 1777975225 | 23.33° C | 18% | 1010.9 hPa | 0 mm | 2.24 m/s, 22° | - | - |
* Rain latest hour (hover to see other rain measurements)
** Current wind speed in m/s (hover to see current wind gust speed)